Time;durP1;ratioP1;P1;durP2;ratioP2;P2;SDS_P1;SDS_P2;PMS_P1;PMS_P2;Temp;Humidity;BMP_temperature;BMP_pressure;BME280_temperature;BME280_humidity;BME280_pressure;Samples;Min_cycle;Max_cycle;Signal;HPM_P1;HPM_P2
2022/08/25 00:02:19;;;;;;;6.93;4.53;;;;;;;19.24;100.00;100594.03;4940893;28;20034;-69
2022/08/25 00:04:44;;;;;;;6.22;4.05;;;;;;;19.20;100.00;100583.75;4960690;28;20455;-69
2022/08/25 00:07:11;;;;;;;5.22;4.03;;;;;;;19.20;100.00;100589.94;4949455;28;20031;-69
2022/08/25 00:09:36;;;;;;;8.60;4.47;;;;;;;19.01;100.00;100557.81;4950716;28;20030;-69
2022/08/25 00:12:03;;;;;;;8.77;4.05;;;;;;;19.19;100.00;100593.59;4945630;28;20106;-69
2022/08/25 00:14:32;;;;;;;8.07;3.90;;;;;;;19.15;100.00;100592.16;4944555;28;20027;-69
2022/08/25 00:16:58;;;;;;;6.57;3.80;;;;;;;19.10;100.00;100588.16;4952547;28;20480;-69
2022/08/25 00:19:27;;;;;;;6.90;3.60;;;;;;;19.09;100.00;100590.00;4952760;28;20106;-69
2022/08/25 00:21:52;;;;;;;6.32;3.70;;;;;;;19.07;100.00;100585.75;4951967;28;20046;-69
2022/08/25 00:24:19;;;;;;;7.15;4.70;;;;;;;19.03;100.00;100576.34;4952989;29;20031;-69
2022/08/25 00:26:48;;;;;;;6.28;3.90;;;;;;;18.97;100.00;100588.34;4953112;28;20038;-69
2022/08/25 00:29:14;;;;;;;7.38;4.13;;;;;;;18.89;100.00;100578.28;5008804;28;20031;-69
2022/08/25 00:31:39;;;;;;;7.07;4.28;;;;;;;18.79;100.00;100574.69;4952798;29;20481;-69
2022/08/25 00:34:11;;;;;;;6.20;4.10;;;;;;;18.81;100.00;100578.09;4952675;28;20027;-69
2022/08/25 00:36:37;;;;;;;7.10;3.92;;;;;;;18.79;100.00;100580.03;4952780;29;20126;-69
2022/08/25 00:39:04;;;;;;;6.15;5.05;;;;;;;18.77;100.00;100573.13;4951834;29;20035;-68
2022/08/25 00:41:29;;;;;;;6.63;4.10;;;;;;;18.78;100.00;100588.16;4949133;28;20027;-69
2022/08/25 00:43:59;;;;;;;6.53;4.30;;;;;;;18.68;100.00;100574.75;4908911;28;20027;-69
2022/08/25 00:46:30;;;;;;;9.93;3.90;;;;;;;18.76;100.00;100592.72;4908987;28;20097;-69
2022/08/25 00:49:07;;;;;;;7.32;4.35;;;;;;;18.75;100.00;100577.75;4942177;28;20032;-69
2022/08/25 00:51:37;;;;;;;5.88;3.65;;;;;;;18.71;100.00;100577.16;4935554;29;20038;-69
2022/08/25 00:54:04;;;;;;;6.93;4.07;;;;;;;18.78;100.00;100583.69;4952333;28;20475;-69
2022/08/25 00:56:30;;;;;;;5.53;4.20;;;;;;;18.69;100.00;100567.59;4935369;28;20035;-69
2022/08/25 00:58:57;;;;;;;6.50;4.45;;;;;;;18.82;100.00;100578.94;4951101;28;20031;-69
2022/08/25 01:01:22;;;;;;;13.65;4.53;;;;;;;18.77;100.00;100575.78;4952552;28;20035;-69
2022/08/25 01:03:47;;;;;;;8.43;4.10;;;;;;;18.76;100.00;100572.28;4952079;28;20039;-69
2022/08/25 01:06:13;;;;;;;6.95;4.25;;;;;;;18.83;100.00;100580.63;4952337;28;20505;-69
2022/08/25 01:08:39;;;;;;;6.07;3.95;;;;;;;18.80;100.00;100580.88;4949951;28;20031;-69
2022/08/25 01:11:06;;;;;;;8.32;4.00;;;;;;;18.81;100.00;100585.22;4967947;28;20046;-69
2022/08/25 01:13:37;;;;;;;7.00;4.00;;;;;;;18.81;100.00;100582.56;4967130;28;20049;-69
2022/08/25 01:16:03;;;;;;;6.25;3.72;;;;;;;18.64;100.00;100561.78;4935176;29;20092;-69
2022/08/25 01:18:28;;;;;;;10.05;4.53;;;;;;;18.58;100.00;100562.28;4951612;28;20126;-69
2022/08/25 01:20:56;;;;;;;6.25;4.13;;;;;;;18.24;100.00;100511.75;4967319;28;20035;-69
2022/08/25 01:23:22;;;;;;;8.98;4.35;;;;;;;18.64;100.00;100580.44;4952306;29;20029;-69
2022/08/25 01:25:55;;;;;;;10.10;4.38;;;;;;;18.64;100.00;100585.75;4928603;28;20106;-69
2022/08/25 01:28:21;;;;;;;10.77;4.10;;;;;;;18.56;100.00;100577.53;4949044;28;20031;-69
2022/08/25 01:30:47;;;;;;;11.07;4.53;;;;;;;18.64;100.00;100591.06;4964828;28;20076;-69
2022/08/25 01:33:12;;;;;;;6.38;3.97;;;;;;;18.60;100.00;100584.31;4952279;28;20363;-69
2022/08/25 01:35:39;;;;;;;6.60;3.65;;;;;;;18.67;100.00;100596.16;4951856;28;20026;-69
2022/08/25 01:38:06;;;;;;;5.47;3.78;;;;;;;18.70;100.00;100593.25;4952123;28;20061;-69
2022/08/25 01:40:32;;;;;;;5.43;3.75;;;;;;;18.70;100.00;100596.75;4951835;28;20081;-69
2022/08/25 01:43:07;;;;;;;7.47;4.45;;;;;;;18.73;100.00;100596.50;4934775;28;20406;-69
2022/08/25 01:45:34;;;;;;;7.90;4.28;;;;;;;18.71;100.00;100594.94;4951609;28;20039;-69
2022/08/25 01:48:00;;;;;;;6.40;4.38;;;;;;;18.74;100.00;100594.69;4943542;28;20027;-69
2022/08/25 01:50:25;;;;;;;9.18;4.55;;;;;;;18.73;100.00;100595.66;4926736;28;20024;-69
2022/08/25 01:52:54;;;;;;;7.40;5.05;;;;;;;18.69;100.00;100588.91;4949423;29;20402;-69
2022/08/25 01:55:19;;;;;;;6.30;4.47;;;;;;;18.71;100.00;100589.63;4949005;28;20070;-69
2022/08/25 01:57:45;;;;;;;6.47;4.32;;;;;;;18.63;100.00;100582.25;4943163;28;20055;-69
2022/08/25 02:00:13;;;;;;;7.15;4.03;;;;;;;18.53;100.00;100577.78;4947885;28;20036;-69
2022/08/25 02:02:39;;;;;;;12.82;4.70;;;;;;;18.55;100.00;100597.16;4939312;28;20023;-69
2022/08/25 02:05:05;;;;;;;7.32;4.43;;;;;;;18.48;100.00;100595.91;4949792;28;20027;-69
2022/08/25 02:07:31;;;;;;;8.48;4.22;;;;;;;18.45;100.00;100596.16;4945233;29;20033;-69
2022/08/25 02:09:56;;;;;;;8.13;4.38;;;;;;;18.28;100.00;100573.56;4950805;28;20065;-69
2022/08/25 02:12:22;;;;;;;6.25;4.00;;;;;;;18.41;100.00;100592.88;4951131;28;20081;-69
2022/08/25 02:14:47;;;;;;;8.07;4.53;;;;;;;18.44;100.00;100589.13;4949252;28;20041;-69
2022/08/25 02:17:13;;;;;;;7.25;4.45;;;;;;;18.28;100.00;100565.56;4951077;28;20036;-69
2022/08/25 02:19:38;;;;;;;7.13;4.22;;;;;;;18.45;100.00;100585.50;4945496;28;20046;-69
2022/08/25 02:22:04;;;;;;;6.05;4.82;;;;;;;18.24;100.00;100554.31;4943299;28;20359;-69
2022/08/25 02:24:29;;;;;;;8.25;4.68;;;;;;;18.43;100.00;100582.09;4950741;28;20058;-69
2022/08/25 02:26:56;;;;;;;7.32;4.25;;;;;;;18.43;100.00;100587.44;4933705;28;20482;-69
2022/08/25 02:29:22;;;;;;;6.50;4.43;;;;;;;18.39;100.00;100581.50;4950751;28;20446;-69
2022/08/25 02:31:47;;;;;;;10.35;4.88;;;;;;;18.36;100.00;100582.59;4948896;28;20039;-69
2022/08/25 02:34:14;;;;;;;6.13;4.35;;;;;;;18.35;100.00;100583.56;4951406;28;20059;-69
2022/08/25 02:36:39;;;;;;;6.53;4.55;;;;;;;18.26;100.00;100570.16;4950344;28;20028;-69
2022/08/25 02:39:07;;;;;;;6.88;4.82;;;;;;;18.23;100.00;100570.38;4950625;29;20106;-69
2022/08/25 02:41:33;;;;;;;5.28;4.00;;;;;;;18.19;100.00;100564.47;4953136;28;20054;-69
2022/08/25 02:44:00;;;;;;;10.20;4.57;;;;;;;18.23;100.00;100570.38;4950701;28;20543;-69
2022/08/25 02:46:26;;;;;;;6.00;4.43;;;;;;;18.10;100.00;100548.38;4954563;28;20077;-69
2022/08/25 02:48:52;;;;;;;7.57;4.85;;;;;;;17.95;100.00;100526.50;4953554;29;20027;-69
2022/08/25 02:51:18;;;;;;;11.88;5.15;;;;;;;18.21;100.00;100570.53;4954348;29;20086;-69
2022/08/25 02:53:46;;;;;;;7.70;4.38;;;;;;;18.14;100.00;100558.69;4953594;28;20057;-69
2022/08/25 02:56:13;;;;;;;9.20;4.72;;;;;;;18.12;100.00;100565.06;4948563;28;20035;-69
2022/08/25 02:58:40;;;;;;;8.93;4.55;;;;;;;18.08;100.00;100564.47;4953984;28;20343;-69
2022/08/25 03:01:06;;;;;;;8.73;4.80;;;;;;;18.08;100.00;100567.13;4953646;28;20085;-69
2022/08/25 03:03:32;;;;;;;7.25;4.40;;;;;;;18.07;100.00;100557.47;4953960;28;20485;-69
2022/08/25 03:05:58;;;;;;;8.95;4.82;;;;;;;17.91;100.00;100529.53;4953695;28;20031;-69
2022/08/25 03:08:24;;;;;;;5.90;4.72;;;;;;;18.06;100.00;100558.44;4953720;28;20073;-69
2022/08/25 03:10:50;;;;;;;9.20;5.28;;;;;;;18.02;100.00;100559.63;4953713;28;20023;-69
2022/08/25 03:13:15;;;;;;;8.90;5.20;;;;;;;17.96;100.00;100557.44;4953102;28;20030;-69
2022/08/25 03:15:41;;;;;;;5.65;3.90;;;;;;;17.96;100.00;100551.28;4953857;29;20023;-69
2022/08/25 03:18:07;;;;;;;8.05;5.45;;;;;;;17.91;100.00;100556.97;4952970;28;20110;-69
2022/08/25 03:20:34;;;;;;;6.35;4.50;;;;;;;17.93;100.00;100562.16;4954128;28;20106;-69
2022/08/25 03:23:00;;;;;;;6.28;4.05;;;;;;;17.89;100.00;100553.56;4952487;28;20027;-67
2022/08/25 03:28:09;;;;;;;9.32;4.45;;;;;;;17.85;100.00;100539.69;4952168;29;20046;-68
2022/08/25 03:30:35;;;;;;;10.93;5.18;;;;;;;17.87;100.00;100539.56;4953423;28;20027;-69
2022/08/25 03:33:01;;;;;;;5.45;4.13;;;;;;;17.90;100.00;100536.66;4951905;28;20035;-69
2022/08/25 03:35:26;;;;;;;7.07;4.53;;;;;;;17.90;100.00;100547.31;4950785;28;20037;-69
2022/08/25 03:37:58;;;;;;;7.82;5.05;;;;;;;17.86;100.00;100532.56;4951995;28;20027;-69
2022/08/25 03:40:24;;;;;;;7.38;4.43;;;;;;;17.81;100.00;100537.41;4934403;28;20024;-69
2022/08/25 03:42:49;;;;;;;6.88;4.22;;;;;;;17.66;100.00;100525.28;4929450;29;20029;-69
2022/08/25 03:45:17;;;;;;;9.00;4.97;;;;;;;17.68;100.00;100531.31;4934013;28;20105;-69
2022/08/25 03:47:45;;;;;;;8.73;5.00;;;;;;;17.67;100.00;100537.63;4953177;28;20130;-69
2022/08/25 03:50:11;;;;;;;7.88;4.88;;;;;;;17.63;100.00;100538.81;4941295;28;20039;-69
2022/08/25 03:52:37;;;;;;;7.95;4.90;;;;;;;17.61;100.00;100538.06;4951771;28;20027;-69
2022/08/25 03:55:07;;;;;;;6.43;4.60;;;;;;;17.59;100.00;100529.38;4937600;28;20471;-69
2022/08/25 03:57:33;;;;;;;9.48;4.63;;;;;;;17.48;100.00;100513.38;4954282;28;20062;-68
2022/08/25 03:59:58;;;;;;;6.85;4.60;;;;;;;17.50;100.00;100525.59;4941187;28;20079;-68
2022/08/25 04:02:24;;;;;;;7.63;4.18;;;;;;;17.50;100.00;100533.56;4951455;28;20043;-68
2022/08/25 04:04:49;;;;;;;7.53;4.60;;;;;;;17.41;100.00;100528.94;4948444;28;20042;-68
2022/08/25 04:07:15;;;;;;;8.02;4.50;;;;;;;17.37;100.00;100523.00;4937727;29;20039;-68
2022/08/25 04:09:40;;;;;;;9.00;4.22;;;;;;;17.14;100.00;100489.38;4938683;28;20028;-68
2022/08/25 04:12:06;;;;;;;4.88;3.85;;;;;;;17.32;100.00;100519.88;4934931;28;20024;-68
2022/08/25 04:14:31;;;;;;;6.63;4.25;;;;;;;17.32;100.00;100525.19;4939438;29;20521;-68
2022/08/25 04:16:56;;;;;;;5.80;4.28;;;;;;;17.35;100.00;100527.59;4952718;28;20031;-68
2022/08/25 04:19:22;;;;;;;8.30;5.43;;;;;;;17.34;100.00;100530.34;4939754;28;20031;-68
2022/08/25 04:21:48;;;;;;;7.47;4.78;;;;;;;17.21;100.00;100524.28;4952661;29;20039;-68
2022/08/25 04:24:13;;;;;;;6.55;4.93;;;;;;;17.26;100.00;100528.31;4949417;28;20027;-68
2022/08/25 04:26:42;;;;;;;8.35;4.90;;;;;;;17.19;100.00;100519.09;4952754;28;20482;-68
2022/08/25 04:29:09;;;;;;;8.50;4.63;;;;;;;17.13;100.00;100524.88;4952471;28;20085;-68
2022/08/25 04:31:34;;;;;;;7.63;4.50;;;;;;;17.08;100.00;100516.41;4952858;28;20066;-68
2022/08/25 04:34:03;;;;;;;8.10;4.78;;;;;;;16.98;100.00;100515.41;4952795;28;20047;-68
2022/08/25 04:36:28;;;;;;;6.40;4.53;;;;;;;16.93;100.00;100506.94;4951398;28;20050;-68
2022/08/25 04:38:54;;;;;;;7.45;4.40;;;;;;;16.67;100.00;100469.06;4952478;28;20485;-70
2022/08/25 04:41:21;;;;;;;7.30;5.30;;;;;;;16.92;100.00;100505.25;4951960;28;20490;-68
2022/08/25 04:43:46;;;;;;;7.35;4.68;;;;;;;16.89;100.00;100504.63;4952275;28;20023;-69
2022/08/25 04:46:24;;;;;;;9.38;4.47;;;;;;;16.84;100.00;100497.00;4952259;28;20027;-68
2022/08/25 04:48:50;;;;;;;6.18;4.80;;;;;;;16.87;100.00;100512.69;4951703;29;20114;-69
2022/08/25 04:51:22;;;;;;;8.65;4.70;;;;;;;16.91;100.00;100503.53;4952414;29;20117;-69
2022/08/25 04:53:48;;;;;;;5.63;4.38;;;;;;;16.72;100.00;100484.66;4952168;28;20365;-68
2022/08/25 04:56:15;;;;;;;7.53;4.68;;;;;;;16.93;100.00;100501.66;4925673;29;20031;-68
2022/08/25 04:58:41;;;;;;;9.68;5.40;;;;;;;16.98;100.00;100509.25;4951308;28;20027;-68
2022/08/25 05:01:10;;;;;;;12.50;4.88;;;;;;;17.01;100.00;100509.84;4952064;28;20039;-68
2022/08/25 05:03:36;;;;;;;11.07;4.78;;;;;;;16.99;100.00;100509.16;4951807;28;20038;-69
2022/08/25 05:06:03;;;;;;;6.80;4.78;;;;;;;16.87;100.00;100480.84;4939609;28;20050;-68
2022/08/25 05:08:28;;;;;;;10.23;5.50;;;;;;;17.04;100.00;100509.63;4935974;29;20501;-69
2022/08/25 05:10:55;;;;;;;7.32;4.43;;;;;;;16.89;100.00;100475.44;4934621;28;20040;-68
2022/08/25 05:13:21;;;;;;;7.82;4.55;;;;;;;17.14;100.00;100515.94;4950311;28;20051;-68
2022/08/25 05:15:54;;;;;;;5.65;4.10;;;;;;;17.15;100.00;100522.94;4949271;29;20031;-68
2022/08/25 05:18:22;;;;;;;6.32;4.82;;;;;;;17.17;100.00;100515.69;4951687;28;20095;-69
2022/08/25 05:20:48;;;;;;;5.93;4.53;;;;;;;17.23;100.00;100519.72;4951813;28;20043;-68
2022/08/25 05:23:13;;;;;;;7.95;4.55;;;;;;;17.25;100.00;100517.78;4915841;28;20036;-69
2022/08/25 05:25:39;;;;;;;7.32;4.63;;;;;;;17.22;100.00;100513.56;4970550;28;20027;-69
2022/08/25 05:28:04;;;;;;;6.78;5.07;;;;;;;17.28;100.00;100523.72;4948022;28;20064;-72
2022/08/25 05:30:29;;;;;;;7.57;4.88;;;;;;;17.32;100.00;100521.66;4931280;28;20035;-69
2022/08/25 05:32:56;;;;;;;7.97;4.55;;;;;;;17.37;100.00;100523.00;4931309;28;20154;-69
2022/08/25 05:35:21;;;;;;;6.30;4.30;;;;;;;17.42;100.00;100527.13;4988349;28;20036;-69
2022/08/25 05:37:46;;;;;;;8.35;5.28;;;;;;;17.45;100.00;100527.75;4965865;28;20034;-69
2022/08/25 05:40:12;;;;;;;7.50;5.05;;;;;;;17.50;100.00;100527.41;4951410;28;20074;-69
2022/08/25 05:42:38;;;;;;;5.43;4.85;;;;;;;17.12;100.00;100455.94;4928496;29;20050;-69
2022/08/25 05:45:04;;;;;;;7.22;4.57;;;;;;;17.62;100.00;100526.47;4938197;28;20093;-69
2022/08/25 05:47:30;;;;;;;9.43;4.32;;;;;;;17.40;100.00;100478.59;4926490;28;20436;-69
2022/08/25 05:49:55;;;;;;;11.13;5.18;;;;;;;17.73;100.00;100529.16;4941928;28;20039;-69
2022/08/25 05:52:21;;;;;;;8.50;4.57;;;;;;;17.66;100.00;100509.34;4937349;28;20032;-69
2022/08/25 05:54:46;;;;;;;9.43;4.95;;;;;;;17.76;100.00;100513.81;4950060;28;20031;-69
2022/08/25 05:57:12;;;;;;;6.53;4.60;;;;;;;17.61;100.00;100477.78;4944850;28;20027;-69
2022/08/25 05:59:37;;;;;;;6.65;4.65;;;;;;;17.90;100.00;100512.75;4965557;28;20023;-69
2022/08/25 06:04:46;;;;;;;11.97;5.60;;;;;;;18.05;100.00;100518.63;4935607;29;20066;-69
2022/08/25 06:07:12;;;;;;;8.13;4.53;;;;;;;18.16;100.00;100522.16;4946368;28;20028;-69
2022/08/25 06:09:39;;;;;;;7.20;4.97;;;;;;;18.25;100.00;100531.22;4933550;28;21686;-69
2022/08/25 06:12:05;;;;;;;7.25;4.93;;;;;;;18.30;100.00;100526.38;4946422;28;20461;-69
2022/08/25 06:14:30;;;;;;;7.70;5.22;;;;;;;17.97;100.00;100466.09;4944633;28;20856;-69
2022/08/25 06:16:55;;;;;;;7.82;4.30;;;;;;;18.44;100.00;100526.13;5009591;28;20034;-69
2022/08/25 06:19:22;;;;;;;7.30;4.30;;;;;;;18.51;100.00;100531.81;4946129;28;20027;-69
2022/08/25 06:21:48;;;;;;;8.82;4.25;;;;;;;18.58;100.00;100525.03;4947990;28;20035;-69
2022/08/25 06:24:13;;;;;;;11.57;4.70;;;;;;;18.73;100.00;100542.41;4954322;29;20096;-69
2022/08/25 06:26:38;;;;;;;11.32;4.55;;;;;;;18.79;100.00;100534.75;4945442;28;20059;-69
2022/08/25 06:29:04;;;;;;;8.13;4.10;;;;;;;18.83;100.00;100522.03;5005731;28;20370;-69
2022/08/25 06:31:29;;;;;;;6.82;4.38;;;;;;;18.98;100.00;100526.09;4950829;28;20035;-69
2022/08/25 06:33:55;;;;;;;6.18;4.05;;;;;;;19.02;100.00;100527.56;4952922;28;20126;-69
2022/08/25 06:36:20;;;;;;;5.22;3.40;;;;;;;19.16;100.00;100529.06;4954406;28;20363;-69
2022/08/25 06:38:46;;;;;;;4.45;3.22;;;;;;;19.03;100.00;100491.94;4949890;28;20407;-69
2022/08/25 06:41:12;;;;;;;7.93;3.78;;;;;;;19.37;100.00;100524.56;4950500;28;20031;-69
2022/08/25 06:43:39;;;;;;;4.22;3.00;;;;;;;19.33;100.00;100505.31;4953796;29;20024;-69
2022/08/25 06:46:13;;;;;;;16.77;3.95;;;;;;;19.59;100.00;100527.16;4945633;28;20035;-69
2022/08/25 06:48:39;;;;;;;5.60;3.17;;;;;;;19.31;100.00;100469.97;4937532;28;20027;-69
2022/08/25 06:51:10;;;;;;;4.68;2.78;;;;;;;19.82;100.00;100533.16;4936166;28;20413;-69
2022/08/25 06:53:36;;;;;;;4.75;2.88;;;;;;;19.94;100.00;100528.59;4943465;28;20035;-68
2022/08/25 06:56:02;;;;;;;5.60;3.33;;;;;;;19.96;100.00;100522.16;4951360;28;20489;-68
2022/08/25 06:58:27;;;;;;;8.25;3.25;;;;;;;20.08;100.00;100529.06;4940560;28;20042;-68
2022/08/25 07:00:52;;;;;;;7.43;2.90;;;;;;;20.18;100.00;100524.63;4943578;28;20462;-68
2022/08/25 07:03:18;;;;;;;4.97;2.70;;;;;;;20.26;100.00;100526.63;4952226;28;20028;-68
2022/08/25 07:05:53;;;;;;;4.63;2.83;;;;;;;20.36;100.00;100528.38;4953296;28;20035;-67
2022/08/25 07:08:19;;;;;;;9.35;3.15;;;;;;;20.46;100.00;100519.53;4949702;28;20035;-67
2022/08/25 07:10:45;;;;;;;5.00;3.38;;;;;;;20.57;100.00;100514.94;5013710;28;20077;-67
2022/08/25 07:13:11;;;;;;;11.98;3.60;;;;;;;20.69;100.00;100507.63;4947184;28;20062;-67
2022/08/25 07:15:38;;;;;;;5.75;3.17;;;;;;;20.82;100.00;100510.88;4950340;29;20394;-67
2022/08/25 07:18:04;;;;;;;6.68;3.53;;;;;;;20.92;100.00;100509.91;4953753;28;20089;-67
2022/08/25 07:20:30;;;;;;;5.72;3.65;;;;;;;21.04;100.00;100507.94;4950152;28;20417;-67
2022/08/25 07:22:55;;;;;;;5.22;3.08;;;;;;;21.16;100.00;100512.16;4952866;28;20634;-67
2022/08/25 07:25:21;;;;;;;6.15;3.45;;;;;;;21.19;100.00;100506.53;4941757;28;20023;-67
2022/08/25 07:27:46;;;;;;;5.97;2.95;;;;;;;21.33;100.00;100503.44;4941148;28;21127;-67
2022/08/25 07:30:11;;;;;;;7.40;3.00;;;;;;;21.40;100.00;100488.50;4946855;28;20024;-67
2022/08/25 07:32:37;;;;;;;6.18;3.40;;;;;;;21.59;100.00;100509.03;4942471;28;20545;-68
2022/08/25 07:35:14;;;;;;;5.90;3.67;;;;;;;21.64;100.00;100495.19;4951436;28;20032;-67
2022/08/25 07:37:45;;;;;;;5.07;3.40;;;;;;;21.86;100.00;100510.91;4951808;28;20043;-68
2022/08/25 07:40:31;;;;;;;9.27;4.30;;;;;;;21.97;100.00;100507.25;4953340;29;20036;-68
2022/08/25 07:42:59;;;;;;;15.10;3.92;;;;;;;22.06;100.00;100507.22;4950624;29;20042;-67
2022/08/25 07:45:30;;;;;;;7.53;4.47;;;;;;;22.17;100.00;100501.63;4934622;28;20089;-68
2022/08/25 07:48:04;;;;;;;7.13;4.13;;;;;;;22.29;100.00;100503.16;4999362;28;20050;-68
2022/08/25 07:50:30;;;;;;;8.30;4.05;;;;;;;22.42;100.00;100503.63;4937141;28;20475;-68
2022/08/25 07:52:57;;;;;;;9.77;3.95;;;;;;;22.53;100.00;100499.91;4923123;28;20525;-68
2022/08/25 07:55:24;;;;;;;5.28;3.97;;;;;;;22.65;100.00;100492.47;4952933;28;20394;-68
2022/08/25 07:57:51;;;;;;;6.93;3.75;;;;;;;22.78;100.00;100498.31;4932642;28;20023;-67
2022/08/25 08:00:17;;;;;;;8.32;4.10;;;;;;;22.89;100.00;100498.09;4948055;29;20039;-68
2022/08/25 08:02:42;;;;;;;6.80;3.40;;;;;;;23.03;100.00;100491.38;4952146;28;20081;-67
2022/08/25 08:05:09;;;;;;;6.03;4.13;;;;;;;23.19;100.00;100495.03;4951172;28;20397;-67
2022/08/25 08:07:35;;;;;;;5.45;3.75;;;;;;;23.30;100.00;100489.41;4940999;28;20428;-67
2022/08/25 08:10:00;;;;;;;7.60;3.35;;;;;;;23.36;100.00;100472.69;4938167;28;20027;-68
2022/08/25 08:12:26;;;;;;;7.07;4.13;;;;;;;23.63;100.00;100486.97;4945292;28;20034;-68
2022/08/25 08:14:52;;;;;;;9.65;4.15;;;;;;;23.79;100.00;100500.50;4949083;28;20049;-67
2022/08/25 08:17:18;;;;;;;5.45;3.47;;;;;;;23.91;100.00;100488.50;4951975;28;20111;-68
2022/08/25 08:19:44;;;;;;;7.57;3.83;;;;;;;24.00;100.00;100476.78;4935429;28;20024;-68
2022/08/25 08:22:14;;;;;;;6.72;3.65;;;;;;;23.93;100.00;100435.47;4952633;28;20038;-68
2022/08/25 08:24:43;;;;;;;6.72;3.83;;;;;;;24.36;100.00;100482.84;4951578;28;20077;-68
2022/08/25 08:27:09;;;;;;;9.98;3.55;;;;;;;24.48;100.00;100486.03;4943546;28;20082;-68
2022/08/25 08:29:35;;;;;;;6.50;3.38;;;;;;;24.55;100.00;100481.69;4939183;28;20038;-68
2022/08/25 08:32:05;;;;;;;7.25;3.47;;;;;;;24.59;100.00;100480.38;4939091;28;20382;-68
2022/08/25 08:34:31;;;;;;;9.88;3.75;;;;;;;24.63;100.00;100476.34;4940618;29;20444;-68
2022/08/25 08:36:57;;;;;;;6.18;3.42;;;;;;;24.63;100.00;100465.59;4952056;28;20077;-68
2022/08/25 08:39:23;;;;;;;13.25;3.42;;;;;;;24.85;100.00;100481.94;4952274;28;20461;-68
2022/08/25 08:42:15;;;;;;;4.47;3.08;;;;;;;24.96;100.00;100485.31;4956141;28;20035;-67
2022/08/25 08:44:44;;;;;;;5.93;3.15;;;;;;;25.06;98.54;100475.25;4936910;28;20032;-68
2022/08/25 08:47:20;;;;;;;9.25;3.47;;;;;;;25.23;96.18;100488.53;4939320;28;20027;-68
2022/08/25 08:50:10;;;;;;;5.93;3.70;;;;;;;25.37;99.51;100479.78;4933395;28;20040;-68
2022/08/25 08:53:05;;;;;;;5.90;3.00;;;;;;;25.38;99.00;100480.63;4948220;28;20034;-68
2022/08/25 08:55:32;;;;;;;4.85;2.80;;;;;;;25.38;94.73;100484.13;4955454;28;20445;-68
2022/08/25 08:57:59;;;;;;;7.40;3.22;;;;;;;25.36;94.92;100491.53;4949034;28;20047;-68
2022/08/25 09:00:26;;;;;;;6.57;3.15;;;;;;;25.32;95.26;100482.13;4966509;28;20472;-68
2022/08/25 09:02:57;;;;;;;3.97;2.83;;;;;;;25.34;95.75;100490.03;4931307;28;20059;-68
2022/08/25 09:05:26;;;;;;;4.65;2.65;;;;;;;25.36;96.22;100488.84;4928180;28;20458;-68
2022/08/25 09:07:56;;;;;;;7.55;2.95;;;;;;;25.38;98.08;100475.25;4926447;28;20036;-68
2022/08/25 09:10:22;;;;;;;5.72;2.53;;;;;;;25.46;93.93;100477.06;4936478;28;20129;-68
2022/08/25 09:13:18;;;;;;;8.88;2.92;;;;;;;25.60;95.38;100482.63;4919105;28;20043;-68
2022/08/25 09:18:48;;;;;;;4.20;2.67;;;;;;;25.93;95.62;100477.97;4922311;28;20516;-68
2022/08/25 09:21:19;;;;;;;18.33;3.10;;;;;;;26.08;95.07;100481.63;4936523;28;20190;-68
2022/08/25 09:24:07;;;;;;;7.45;3.25;;;;;;;26.18;94.46;100478.75;4933779;28;20040;-68
2022/08/25 09:26:36;;;;;;;7.95;2.90;;;;;;;26.23;94.16;100471.81;4923296;28;20023;-68
2022/08/25 09:29:23;;;;;;;6.78;2.88;;;;;;;26.09;88.69;100431.28;4935866;28;20386;-68
2022/08/25 09:31:49;;;;;;;4.47;2.75;;;;;;;26.46;90.51;100477.28;4945188;28;20033;-68
2022/08/25 09:34:20;;;;;;;7.22;2.55;;;;;;;26.32;90.69;100446.53;4950212;28;20102;-68
2022/08/25 09:36:49;;;;;;;5.20;3.53;;;;;;;26.58;90.47;100483.94;4949965;28;20549;-68
2022/08/25 09:39:15;;;;;;;8.00;2.80;;;;;;;26.56;87.73;100482.44;4943263;28;20115;-68
2022/08/25 09:41:45;;;;;;;5.68;2.80;;;;;;;26.48;84.13;100452.81;4951368;28;20555;-68
2022/08/25 09:44:39;;;;;;;4.55;2.47;;;;;;;26.80;84.56;100484.97;4936204;28;20038;-67
2022/08/25 09:47:16;;;;;;;7.28;2.75;;;;;;;26.95;79.86;100483.19;4930812;28;20030;-67
2022/08/25 09:49:50;;;;;;;8.20;2.72;;;;;;;27.09;78.67;100468.94;4931345;28;20054;-68
2022/08/25 09:52:27;;;;;;;9.82;3.75;;;;;;;27.24;80.34;100471.69;4933087;28;20031;-67
2022/08/25 09:55:20;;;;;;;7.35;3.38;;;;;;;27.27;79.61;100460.50;4944249;28;20501;-67
2022/08/25 09:57:50;;;;;;;11.82;4.40;;;;;;;27.36;77.03;100459.41;4950682;28;20035;-67
2022/08/25 10:00:20;;;;;;;6.20;3.05;;;;;;;27.50;77.70;100465.88;4942253;29;20340;-67
2022/08/25 10:03:04;;;;;;;5.72;2.63;;;;;;;27.55;77.96;100452.66;4940410;28;20054;-67
2022/08/25 10:05:34;;;;;;;17.20;3.13;;;;;;;27.55;76.87;100440.00;4938903;28;20028;-69
2022/08/25 10:08:03;;;;;;;6.15;2.67;;;;;;;27.65;76.93;100456.75;4932752;28;20027;-68
2022/08/25 10:10:32;;;;;;;11.98;2.97;;;;;;;27.68;76.35;100453.69;4946055;28;20055;-67
2022/08/25 10:13:00;;;;;;;5.13;2.40;;;;;;;27.71;72.24;100447.94;4949988;28;20031;-68
2022/08/25 10:15:32;;;;;;;7.90;2.83;;;;;;;27.80;72.35;100445.97;4949272;29;20521;-67
2022/08/25 10:18:26;;;;;;;4.47;2.50;;;;;;;27.90;71.72;100447.34;4931007;28;20081;-67
2022/08/25 10:21:13;;;;;;;8.60;2.40;;;;;;;27.98;70.97;100449.13;4943021;28;20074;-68
2022/08/25 10:23:51;;;;;;;9.30;3.00;;;;;;;27.98;69.56;100441.03;4936684;28;20118;-67
2022/08/25 10:26:46;;;;;;;5.53;2.33;;;;;;;28.02;68.18;100434.19;4930703;28;20060;-67
2022/08/25 10:30:03;;;;;;;5.07;2.25;;;;;;;28.06;69.99;100437.34;4940734;28;20130;-67
2022/08/25 10:32:49;;;;;;;10.63;3.10;;;;;;;28.15;68.37;100420.91;4945337;28;20490;-66
2022/08/25 10:35:17;;;;;;;4.22;2.33;;;;;;;28.07;68.08;100393.13;4942743;28;20115;-67
2022/08/25 10:38:14;;;;;;;4.45;2.60;;;;;;;28.38;68.02;100421.56;4933999;29;20398;-67
2022/08/25 10:40:45;;;;;;;5.07;2.20;;;;;;;28.48;67.82;100420.41;4999697;28;20118;-67
2022/08/25 10:43:28;;;;;;;3.83;2.17;;;;;;;28.55;66.88;100421.31;4933786;28;20031;-68
2022/08/25 10:46:16;;;;;;;3.63;2.20;;;;;;;28.58;67.07;100412.81;4996250;28;20054;-68
2022/08/25 10:48:57;;;;;;;5.60;2.60;;;;;;;28.58;67.80;100408.25;4996483;28;20397;-67
2022/08/25 10:51:38;;;;;;;9.23;2.58;;;;;;;28.65;66.91;100413.72;4950334;28;20062;-68
2022/08/25 10:54:46;;;;;;;8.30;2.25;;;;;;;28.75;66.31;100398.03;4950235;28;20126;-68
2022/08/25 10:57:16;;;;;;;6.18;2.65;;;;;;;28.88;66.57;100399.00;4939382;28;20043;-68
2022/08/25 11:00:00;;;;;;;8.70;3.03;;;;;;;28.97;67.32;100390.72;4952861;28;20038;-68
2022/08/25 11:02:50;;;;;;;7.28;3.03;;;;;;;29.06;66.00;100393.13;4941547;28;20058;-68
2022/08/25 11:05:48;;;;;;;6.00;2.80;;;;;;;29.20;66.99;100386.75;4937555;28;20157;-68
2022/08/25 11:08:26;;;;;;;4.35;1.90;;;;;;;29.35;63.99;100379.38;4935157;28;20019;-68
2022/08/25 11:11:02;;;;;;;5.18;2.30;;;;;;;29.49;63.89;100384.88;4944402;28;20088;-68
2022/08/25 11:13:39;;;;;;;4.85;2.15;;;;;;;29.64;63.25;100377.47;4952153;28;20397;-68
2022/08/25 11:16:13;;;;;;;4.32;2.38;;;;;;;29.57;63.85;100354.94;4929518;29;20037;-68
2022/08/25 11:19:18;;;;;;;3.70;2.30;;;;;;;29.87;63.06;100378.03;5016322;28;20031;-68
2022/08/25 11:21:46;;;;;;;11.18;2.78;;;;;;;29.94;62.18;100372.63;4944522;28;20035;-68
2022/08/25 11:24:20;;;;;;;9.02;3.05;;;;;;;30.03;60.42;100383.09;4938644;28;20028;-68
2022/08/25 11:26:52;;;;;;;5.45;2.75;;;;;;;30.19;62.08;100371.03;4940940;28;20041;-68
2022/08/25 11:29:19;;;;;;;6.32;2.60;;;;;;;30.33;60.25;100367.31;4931190;28;20026;-68
2022/08/25 11:31:48;;;;;;;8.55;2.72;;;;;;;30.42;60.41;100356.09;4953448;29;20035;-68
2022/08/25 11:34:14;;;;;;;11.43;2.88;;;;;;;30.69;59.54;100351.53;4935429;28;20023;-68
2022/08/25 11:36:42;;;;;;;8.45;2.92;;;;;;;30.85;61.24;100334.00;4938322;28;20031;-68
2022/08/25 11:39:15;;;;;;;7.35;3.05;;;;;;;31.37;60.83;100361.09;4935311;28;20035;-68